createdAt,value
2022-12-26T00:01:12.693Z,100236.91
2022-12-26T00:03:40.743Z,100234.06
2022-12-26T00:06:15.509Z,100206.31
2022-12-26T00:08:43.662Z,100238.13
2022-12-26T00:11:12.438Z,100208.41
2022-12-26T00:13:41.822Z,100225.53
2022-12-26T00:16:11.241Z,100230.53
2022-12-26T00:18:39.540Z,100213.84
2022-12-26T00:21:08.462Z,100202.06
2022-12-26T00:23:38.118Z,100217.09
2022-12-26T00:26:07.647Z,100237.09
2022-12-26T00:28:35.568Z,100233.47
2022-12-26T00:31:05.170Z,100232.19
2022-12-26T00:33:32.989Z,100234.00
2022-12-26T00:36:02.552Z,100236.50
2022-12-26T00:38:30.482Z,100230.59
2022-12-26T00:40:59.668Z,100237.28
2022-12-26T00:43:27.465Z,100236.84
2022-12-26T00:45:55.263Z,100233.38
2022-12-26T00:48:23.153Z,100243.63
2022-12-26T00:50:51.134Z,100202.00
2022-12-26T00:53:19.387Z,100196.50
2022-12-26T00:55:47.141Z,100241.31
2022-12-26T00:58:16.534Z,100236.72
2022-12-26T01:00:44.531Z,100254.41
2022-12-26T01:03:13.502Z,100253.69
2022-12-26T01:05:42.931Z,100258.63
2022-12-26T01:08:22.303Z,100213.28
2022-12-26T01:10:51.827Z,100261.50
2022-12-26T01:13:21.911Z,100241.81
2022-12-26T01:15:50.755Z,100261.66
2022-12-26T01:18:19.133Z,100259.56
2022-12-26T01:20:46.947Z,100293.41
2022-12-26T01:23:14.761Z,100283.50
2022-12-26T01:26:16.695Z,100281.16
2022-12-26T01:28:31.983Z,100272.25
2022-12-26T01:31:02.564Z,100299.06
2022-12-26T01:33:30.748Z,100270.72
2022-12-26T01:35:58.857Z,100279.34
2022-12-26T01:38:26.769Z,100284.03
2022-12-26T01:41:14.694Z,100305.59
2022-12-26T01:43:52.601Z,100307.13
2022-12-26T01:46:23.622Z,100312.56
2022-12-26T01:48:52.348Z,100308.25
2022-12-26T01:51:22.777Z,100293.19
2022-12-26T01:53:53.232Z,100300.31
2022-12-26T01:56:24.847Z,100295.00
2022-12-26T01:58:58.978Z,100279.41
2022-12-26T02:01:29.473Z,100282.75
2022-12-26T02:04:15.164Z,100285.66
2022-12-26T02:06:43.765Z,100278.84
2022-12-26T02:09:11.597Z,100287.06
2022-12-26T02:11:44.085Z,100303.25
2022-12-26T02:14:13.531Z,100299.63
2022-12-26T02:16:43.235Z,100308.25
2022-12-26T02:19:23.151Z,100328.59
2022-12-26T02:22:12.255Z,100322.47
2022-12-26T02:25:07.957Z,100310.91
2022-12-26T02:28:07.136Z,100317.16
2022-12-26T02:30:42.828Z,100260.91
2022-12-26T02:33:30.692Z,100314.91
2022-12-26T02:36:30.080Z,100314.63
2022-12-26T02:39:43.799Z,100315.28
2022-12-26T02:42:12.418Z,100306.00
2022-12-26T02:45:05.542Z,100321.88
2022-12-26T02:47:43.625Z,100332.16
2022-12-26T02:50:40.260Z,100322.47
2022-12-26T02:53:31.809Z,100335.81
2022-12-26T02:56:21.570Z,100311.31
2022-12-26T02:59:13.685Z,100332.34
2022-12-26T03:02:04.307Z,100332.47
2022-12-26T03:04:55.493Z,100321.56
2022-12-26T03:07:45.592Z,100334.00
2022-12-26T03:10:37.987Z,100328.25
2022-12-26T03:13:12.873Z,100326.44
2022-12-26T03:16:13.517Z,100315.50
2022-12-26T03:18:57.911Z,100336.19
2022-12-26T03:21:34.188Z,100343.97
2022-12-26T03:24:01.964Z,100320.69
2022-12-26T03:26:39.702Z,100308.72
2022-12-26T03:29:26.821Z,100325.59
2022-12-26T03:31:55.377Z,100337.44
2022-12-26T03:34:23.273Z,100333.88
2022-12-26T03:37:07.063Z,100339.53
2022-12-26T03:40:01.249Z,100342.66
2022-12-26T03:42:52.919Z,100339.88
2022-12-26T03:45:48.101Z,100337.13
2022-12-26T03:48:40.097Z,100330.75
2022-12-26T03:51:30.778Z,100348.56
2022-12-26T03:54:25.086Z,100340.25
2022-12-26T03:57:13.185Z,100345.53
2022-12-26T04:00:03.371Z,100347.75
2022-12-26T04:03:01.651Z,100347.06
2022-12-26T04:05:47.978Z,100345.41
2022-12-26T04:08:40.164Z,100340.94
2022-12-26T04:11:32.226Z,100343.06
2022-12-26T04:14:22.378Z,100338.88
2022-12-26T04:17:12.733Z,100345.28
2022-12-26T04:19:59.781Z,100365.75
2022-12-26T04:22:53.763Z,100368.66
2022-12-26T04:25:49.576Z,100345.03
2022-12-26T04:28:38.504Z,100351.41
2022-12-26T04:31:28.651Z,100356.13
2022-12-26T04:34:18.395Z,100359.63
2022-12-26T04:37:08.284Z,100348.34
2022-12-26T04:39:55.409Z,100360.47
2022-12-26T04:42:43.306Z,100325.97
2022-12-26T04:45:14.636Z,100333.75
2022-12-26T04:48:02.978Z,100360.47
2022-12-26T04:50:29.871Z,100365.47
2022-12-26T04:52:59.778Z,100362.81
2022-12-26T04:55:30.604Z,100361.16
2022-12-26T04:57:58.421Z,100356.69
2022-12-26T05:00:29.619Z,100355.88
2022-12-26T05:03:19.198Z,100348.06
2022-12-26T05:06:10.003Z,100337.34
2022-12-26T05:08:57.706Z,100355.31
2022-12-26T05:11:26.084Z,100350.56
2022-12-26T05:13:55.010Z,100358.91
2022-12-26T05:16:42.757Z,100356.16
2022-12-26T05:19:29.246Z,100347.25
2022-12-26T05:22:15.369Z,100375.91
2022-12-26T05:25:02.468Z,100364.50
2022-12-26T05:27:56.116Z,100361.84
2022-12-26T05:30:24.285Z,100362.00
2022-12-26T05:33:11.258Z,100366.03
2022-12-26T05:35:40.294Z,100365.91
2022-12-26T05:38:10.768Z,100369.25
2022-12-26T05:40:38.618Z,100365.63
2022-12-26T05:43:06.498Z,100359.34
2022-12-26T05:45:34.230Z,100363.97
2022-12-26T05:48:03.872Z,100369.53
2022-12-26T05:50:31.680Z,100350.16
2022-12-26T05:52:59.903Z,100372.03
2022-12-26T05:55:28.312Z,100377.19
2022-12-26T05:57:56.144Z,100358.94
2022-12-26T06:00:24.133Z,100356.44
2022-12-26T06:02:52.069Z,100345.03
2022-12-26T06:05:24.736Z,100319.31
2022-12-26T06:07:52.975Z,100315.13
2022-12-26T06:10:20.823Z,100352.56
2022-12-26T06:12:48.613Z,100341.41
2022-12-26T06:15:17.221Z,100367.84
2022-12-26T06:17:45.272Z,100364.78
2022-12-26T06:20:13.395Z,100355.88
2022-12-26T06:22:42.569Z,100376.22
2022-12-26T06:25:11.266Z,100383.31
2022-12-26T06:27:38.973Z,100381.06
2022-12-26T06:30:07.537Z,100389.81
2022-12-26T06:32:35.334Z,100385.66
2022-12-26T06:35:03.164Z,100401.50
2022-12-26T06:37:31.077Z,100399.13
2022-12-26T06:40:06.291Z,100399.69
2022-12-26T06:42:34.086Z,100341.94
2022-12-26T06:45:01.768Z,100370.03
2022-12-26T06:47:30.348Z,100386.47
2022-12-26T06:49:58.154Z,100391.19
2022-12-26T06:52:25.949Z,100392.31
2022-12-26T06:54:53.840Z,100390.38
2022-12-26T06:57:23.029Z,100386.91
2022-12-26T06:59:50.843Z,100388.72
2022-12-26T07:02:21.713Z,100351.38
2022-12-26T07:04:49.630Z,100391.63
2022-12-26T07:07:20.824Z,100401.22
2022-12-26T07:09:48.557Z,100413.72
2022-12-26T07:12:16.300Z,100379.63
2022-12-26T07:14:45.375Z,100425.72
2022-12-26T07:17:13.093Z,100425.97
2022-12-26T07:19:40.946Z,100422.34
2022-12-26T07:22:08.726Z,100423.91
2022-12-26T07:24:36.546Z,100423.44
2022-12-26T07:27:04.455Z,100436.41
2022-12-26T07:29:32.245Z,100434.50
2022-12-26T07:32:01.428Z,100435.69
2022-12-26T07:34:31.888Z,100440.97
2022-12-26T07:37:01.103Z,100447.09
2022-12-26T07:39:31.259Z,100466.56
2022-12-26T07:41:58.136Z,100472.69
2022-12-26T07:44:26.449Z,100463.22
2022-12-26T07:46:56.745Z,100445.69
2022-12-26T07:49:25.900Z,100433.72
2022-12-26T07:51:54.160Z,100459.56
2022-12-26T07:54:22.053Z,100461.53
2022-12-26T07:56:51.097Z,100481.84
2022-12-26T07:59:19.503Z,100467.94
2022-12-26T08:01:47.293Z,100477.53
2022-12-26T08:04:15.446Z,100482.13
2022-12-26T08:06:46.409Z,100476.97
2022-12-26T08:09:16.904Z,100488.63
2022-12-26T08:11:45.553Z,100492.94
2022-12-26T08:14:16.698Z,100475.97
2022-12-26T08:16:51.309Z,100484.34
2022-12-26T08:19:21.074Z,100490.03
2022-12-26T08:21:50.316Z,100480.19
2022-12-26T08:24:18.279Z,100484.88
2022-12-26T08:26:46.047Z,100481.00
2022-12-26T08:29:16.181Z,100476.84
2022-12-26T08:31:44.715Z,100490.03
2022-12-26T08:34:13.341Z,100490.75
2022-12-26T08:36:41.699Z,100478.22
2022-12-26T08:39:10.863Z,100485.72
2022-12-26T08:41:39.224Z,100493.66
2022-12-26T08:44:26.663Z,100491.84
2022-12-26T08:46:56.011Z,100491.72
2022-12-26T08:49:26.485Z,100493.66
2022-12-26T08:51:54.272Z,100495.19
2022-12-26T08:54:23.957Z,100496.88
2022-12-26T08:56:51.847Z,100505.50
2022-12-26T08:59:19.838Z,100508.84
2022-12-26T09:01:47.751Z,100510.38
2022-12-26T09:04:15.748Z,100487.66
2022-12-26T09:06:44.262Z,100513.88
2022-12-26T09:09:13.411Z,100534.75
2022-12-26T09:11:43.602Z,100532.09
2022-12-26T09:14:14.867Z,100534.34
2022-12-26T09:16:50.354Z,100517.75
2022-12-26T09:19:20.043Z,100539.09
2022-12-26T09:21:50.259Z,100533.38
2022-12-26T09:24:19.508Z,100542.00
2022-12-26T09:26:48.724Z,100541.31
2022-12-26T09:29:16.496Z,100545.38
2022-12-26T09:31:44.288Z,100536.72
2022-12-26T09:34:12.043Z,100541.75
2022-12-26T09:36:40.049Z,100552.84
2022-12-26T09:39:08.494Z,100545.63
2022-12-26T09:42:00.749Z,100555.94
2022-12-26T09:44:38.606Z,100558.84
2022-12-26T09:47:20.032Z,100569.00
2022-12-26T09:49:55.294Z,100584.88
2022-12-26T09:52:25.905Z,100572.75
2022-12-26T09:54:57.408Z,100577.59
2022-12-26T09:57:33.316Z,100597.00
2022-12-26T10:00:05.437Z,100598.50
2022-12-26T10:02:40.306Z,100593.22
2022-12-26T10:05:08.969Z,100589.91
2022-12-26T10:07:43.570Z,100586.25
2022-12-26T10:10:13.437Z,100589.09
2022-12-26T10:12:53.358Z,100587.97
2022-12-26T10:15:39.290Z,100592.28
2022-12-26T10:18:17.868Z,100599.94
2022-12-26T10:21:00.517Z,100600.78
2022-12-26T10:23:39.667Z,100602.56
2022-12-26T10:26:13.891Z,100607.00
2022-12-26T10:28:47.854Z,100606.75
2022-12-26T10:31:21.772Z,100574.97
2022-12-26T10:33:55.129Z,100602.75
2022-12-26T10:36:31.923Z,100594.66
2022-12-26T10:39:02.123Z,100597.44
2022-12-26T10:41:36.540Z,100583.22
2022-12-26T10:44:05.894Z,100585.88
2022-12-26T10:46:49.886Z,100576.00
2022-12-26T10:49:21.472Z,100579.63
2022-12-26T10:51:50.561Z,100587.16
2022-12-26T10:54:20.170Z,100582.56
2022-12-26T10:56:50.504Z,100554.97
2022-12-26T10:59:23.183Z,100591.91
2022-12-26T11:01:51.747Z,100587.03
2022-12-26T11:05:10.459Z,100593.16
2022-12-26T11:07:13.125Z,100586.75
2022-12-26T11:09:43.947Z,100565.72
2022-12-26T11:12:21.813Z,100603.34
2022-12-26T11:14:57.626Z,100581.88
2022-12-26T11:17:28.785Z,100602.75
2022-12-26T11:20:24.302Z,100604.31
2022-12-26T11:22:52.827Z,100562.06
2022-12-26T11:25:24.093Z,100610.84
2022-12-26T11:27:54.141Z,100606.38
2022-12-26T11:30:27.209Z,100613.34
2022-12-26T11:33:26.741Z,100583.53
2022-12-26T11:36:02.162Z,100591.34
2022-12-26T11:38:45.040Z,100598.31
2022-12-26T11:41:37.095Z,100598.88
2022-12-26T11:44:15.696Z,100597.75
2022-12-26T11:46:49.517Z,100606.09
2022-12-26T11:49:25.479Z,100549.25
2022-12-26T11:51:59.301Z,100601.94
2022-12-26T11:54:31.073Z,100596.66
2022-12-26T11:57:18.315Z,100601.66
2022-12-26T11:59:46.784Z,100616.72
2022-12-26T12:02:20.233Z,100578.81
2022-12-26T12:04:49.691Z,100597.78
2022-12-26T12:07:30.097Z,100614.75
2022-12-26T12:10:05.881Z,100600.84
2022-12-26T12:12:37.367Z,100615.44
2022-12-26T12:15:15.626Z,100580.75
2022-12-26T12:17:51.227Z,100594.97
2022-12-26T12:20:32.828Z,100612.50
2022-12-26T12:23:19.056Z,100596.38
2022-12-26T12:26:02.651Z,100596.63
2022-12-26T12:28:45.828Z,100602.75
2022-12-26T12:31:22.971Z,100608.63
2022-12-26T12:34:01.182Z,100599.41
2022-12-26T12:36:38.000Z,100620.72
2022-12-26T12:39:12.896Z,100616.50
2022-12-26T12:42:04.756Z,100586.31
2022-12-26T12:44:55.414Z,100601.53
2022-12-26T12:47:34.926Z,100601.78
2022-12-26T12:50:15.301Z,100609.72
2022-12-26T12:52:52.292Z,100590.50
2022-12-26T12:55:45.081Z,100589.25
2022-12-26T12:58:23.298Z,100599.13
2022-12-26T13:00:55.716Z,100585.47
2022-12-26T13:03:31.841Z,100588.97
2022-12-26T13:06:07.415Z,100598.28
2022-12-26T13:08:40.202Z,100594.09
2022-12-26T13:11:14.656Z,100600.25
2022-12-26T13:13:53.237Z,100515.72
2022-12-26T13:16:25.270Z,100591.59
2022-12-26T13:18:56.579Z,100587.41
2022-12-26T13:21:27.837Z,100591.84
2022-12-26T13:24:20.115Z,100590.31
2022-12-26T13:26:52.782Z,100592.13
2022-12-26T13:29:29.949Z,100595.03
2022-12-26T13:31:59.584Z,100604.22
2022-12-26T13:34:27.958Z,100612.09
2022-12-26T13:36:58.654Z,100601.69
2022-12-26T13:39:41.381Z,100605.56
2022-12-26T13:42:42.818Z,100609.50
2022-12-26T13:45:58.451Z,100612.81
2022-12-26T13:49:02.631Z,100611.44
2022-12-26T13:51:51.865Z,100625.63
2022-12-26T13:54:23.866Z,100612.84
2022-12-26T13:57:34.411Z,100609.78
2022-12-26T14:00:17.532Z,100621.56
2022-12-26T14:03:22.050Z,100614.66
2022-12-26T14:06:11.215Z,100608.16
2022-12-26T14:08:54.816Z,100620.88
2022-12-26T14:11:40.377Z,100635.69
2022-12-26T14:14:20.040Z,100641.25
2022-12-26T14:16:54.782Z,100648.16
2022-12-26T14:19:36.853Z,100650.00
2022-12-26T14:22:12.534Z,100650.22
2022-12-26T14:24:51.760Z,100645.69
2022-12-26T14:27:31.228Z,100662.66
2022-12-26T14:30:07.910Z,100660.03
2022-12-26T14:32:46.223Z,100679.81
2022-12-26T14:35:24.397Z,100679.16
2022-12-26T14:38:06.338Z,100684.13
2022-12-26T14:40:36.802Z,100676.91
2022-12-26T14:43:30.354Z,100686.97
2022-12-26T14:45:58.640Z,100690.13
2022-12-26T14:49:00.428Z,100695.00
2022-12-26T14:51:40.635Z,100709.97
2022-12-26T14:54:35.542Z,100704.72
2022-12-26T14:57:44.089Z,100696.06
2022-12-26T15:00:30.709Z,100689.84
2022-12-26T15:03:32.009Z,100696.06
2022-12-26T15:06:21.203Z,100691.31
2022-12-26T15:09:05.167Z,100707.59
2022-12-26T15:12:02.221Z,100695.16
2022-12-26T15:15:04.147Z,100729.22
2022-12-26T15:17:42.735Z,100722.66
2022-12-26T15:20:41.168Z,100726.38
2022-12-26T15:23:46.323Z,100742.44
2022-12-26T15:26:56.465Z,100750.88
2022-12-26T15:29:46.371Z,100745.50
2022-12-26T15:32:19.652Z,100751.22
2022-12-26T15:35:07.369Z,100767.06
2022-12-26T15:37:46.467Z,100750.53
2022-12-26T15:40:16.916Z,100771.84
2022-12-26T15:43:05.737Z,100778.31
2022-12-26T15:45:45.686Z,100788.28
2022-12-26T15:48:27.581Z,100775.31
2022-12-26T15:51:02.241Z,100801.56
2022-12-26T15:53:44.110Z,100782.50
2022-12-26T15:56:28.787Z,100829.31
2022-12-26T15:59:17.231Z,100838.44
2022-12-26T16:01:48.794Z,100843.88
2022-12-26T16:04:23.301Z,100831.38
2022-12-26T16:07:07.138Z,100854.66
2022-12-26T16:09:44.593Z,100860.72
2022-12-26T16:12:25.641Z,100829.34
2022-12-26T16:15:02.832Z,100854.16
2022-12-26T16:17:30.962Z,100855.19
2022-12-26T16:19:59.624Z,100858.59
2022-12-26T16:22:46.590Z,100884.78
2022-12-26T16:25:18.076Z,100866.25
2022-12-26T16:27:47.705Z,100881.28
2022-12-26T16:30:18.895Z,100894.44
2022-12-26T16:32:47.324Z,100895.91
2022-12-26T16:35:21.854Z,100895.00
2022-12-26T16:37:53.783Z,100887.00
2022-12-26T16:40:25.609Z,100907.00
2022-12-26T16:43:06.525Z,100908.91
2022-12-26T16:45:36.670Z,100904.38
2022-12-26T16:48:08.232Z,100911.66
2022-12-26T16:50:45.268Z,100919.44
2022-12-26T16:53:16.289Z,100928.28
2022-12-26T16:55:46.429Z,100912.50
2022-12-26T16:58:18.714Z,100920.91
2022-12-26T17:00:49.931Z,100936.41
2022-12-26T17:03:28.252Z,100934.03
2022-12-26T17:05:57.198Z,100933.34
2022-12-26T17:08:27.134Z,100930.38
2022-12-26T17:10:55.009Z,100932.06
2022-12-26T17:13:26.597Z,100932.44
2022-12-26T17:15:57.990Z,100944.34
2022-12-26T17:18:46.709Z,100964.59
2022-12-26T17:21:30.186Z,100954.72
2022-12-26T17:24:36.239Z,100982.94
2022-12-26T17:27:20.510Z,100992.94
2022-12-26T17:29:54.827Z,100989.28
2022-12-26T17:32:37.110Z,100999.16
2022-12-26T17:35:08.674Z,100960.66
2022-12-26T17:37:37.074Z,101001.56
2022-12-26T17:40:19.968Z,101007.78
2022-12-26T17:42:52.155Z,101007.34
2022-12-26T17:45:22.695Z,101014.00
2022-12-26T17:47:51.681Z,101018.00
2022-12-26T17:50:19.589Z,101031.66
2022-12-26T17:52:47.358Z,101044.81
2022-12-26T17:55:19.725Z,101045.03
2022-12-26T17:57:48.952Z,101060.69
2022-12-26T18:00:19.310Z,101058.06
2022-12-26T18:02:47.563Z,101064.16
2022-12-26T18:05:16.078Z,101072.44
2022-12-26T18:07:45.111Z,101078.78
2022-12-26T18:10:19.283Z,101076.16
2022-12-26T18:12:49.481Z,101062.69
2022-12-26T18:15:18.148Z,101077.09
2022-12-26T18:17:49.340Z,101085.84
2022-12-26T18:20:18.798Z,101083.81
2022-12-26T18:22:47.666Z,101086.16
2022-12-26T18:25:16.214Z,101072.75
2022-12-26T18:27:44.757Z,101095.66
2022-12-26T18:30:17.485Z,101120.53
2022-12-26T18:32:46.736Z,101068.44
2022-12-26T18:35:14.540Z,101118.56
2022-12-26T18:37:44.380Z,101119.78
2022-12-26T18:40:27.257Z,101132.06
2022-12-26T18:42:55.117Z,101134.97
2022-12-26T18:45:24.668Z,101137.50
2022-12-26T18:47:52.476Z,101137.50
2022-12-26T18:50:20.881Z,101148.41
2022-12-26T18:52:53.333Z,101128.94
2022-12-26T18:55:22.216Z,101106.16
2022-12-26T18:57:50.242Z,101140.09
2022-12-26T19:00:19.793Z,101164.56
2022-12-26T19:02:49.860Z,101168.22
2022-12-26T19:05:20.006Z,101147.31
2022-12-26T19:07:50.206Z,101167.38
2022-12-26T19:10:19.701Z,101183.72
2022-12-26T19:12:47.867Z,101188.41
2022-12-26T19:15:16.385Z,101191.94
2022-12-26T19:17:44.653Z,101175.94
2022-12-26T19:20:19.748Z,101195.53
2022-12-26T19:22:48.346Z,101206.28
2022-12-26T19:25:16.956Z,101210.53
2022-12-26T19:27:45.117Z,101216.72
2022-12-26T19:30:13.990Z,101216.72
2022-12-26T19:32:43.183Z,101215.13
2022-12-26T19:35:11.882Z,101223.28
2022-12-26T19:37:41.999Z,101230.59
2022-12-26T19:40:11.739Z,101234.16
2022-12-26T19:42:40.008Z,101243.63
2022-12-26T19:45:09.862Z,101245.81
2022-12-26T19:47:38.142Z,101256.38
2022-12-26T19:50:07.444Z,101260.47
2022-12-26T19:52:36.506Z,101238.53
2022-12-26T19:55:06.151Z,101256.16
2022-12-26T19:57:34.546Z,101226.13
2022-12-26T20:00:02.485Z,101261.03
2022-12-26T20:02:40.234Z,101258.50
2022-12-26T20:05:09.286Z,101263.94
2022-12-26T20:07:37.063Z,101256.72
2022-12-26T20:10:07.399Z,101273.88
2022-12-26T20:12:35.124Z,101268.81
2022-12-26T20:15:02.857Z,101263.06
2022-12-26T20:17:30.628Z,101203.44
2022-12-26T20:19:58.454Z,101290.81
2022-12-26T20:22:26.239Z,101294.94
2022-12-26T20:24:53.936Z,101294.28
2022-12-26T20:27:23.002Z,101304.94
2022-12-26T20:29:50.752Z,101305.94
2022-12-26T20:32:18.499Z,101306.09
2022-12-26T20:34:46.297Z,101306.94
2022-12-26T20:37:14.196Z,101307.44
2022-12-26T20:39:42.065Z,101258.28
2022-12-26T20:42:09.748Z,101315.53
2022-12-26T20:44:41.489Z,101314.69
2022-12-26T20:47:09.379Z,101315.47
2022-12-26T20:49:37.310Z,101324.94
2022-12-26T20:52:05.390Z,101326.97
2022-12-26T20:54:33.198Z,101332.72
2022-12-26T20:57:01.241Z,101322.31
2022-12-26T20:59:28.951Z,101302.44
2022-12-26T21:01:58.201Z,101336.69
2022-12-26T21:04:26.755Z,101338.91
2022-12-26T21:06:54.644Z,101323.88
2022-12-26T21:09:22.593Z,101346.19
2022-12-26T21:11:50.679Z,101350.19
2022-12-26T21:14:22.475Z,101344.16
2022-12-26T21:16:53.033Z,101336.31
2022-12-26T21:19:23.694Z,101349.81
2022-12-26T21:21:53.759Z,101358.13
2022-12-26T21:24:23.823Z,101345.44
2022-12-26T21:26:51.954Z,101345.88
2022-12-26T21:29:23.614Z,101370.31
2022-12-26T21:31:51.932Z,101363.22
2022-12-26T21:34:23.501Z,101370.06
2022-12-26T21:37:09.585Z,101367.19
2022-12-26T21:39:38.485Z,101372.09
2022-12-26T21:42:07.441Z,101358.38
2022-12-26T21:44:35.792Z,101364.56
2022-12-26T21:47:04.340Z,101338.06
2022-12-26T21:49:33.446Z,101383.34
2022-12-26T21:52:01.214Z,101370.25
2022-12-26T21:54:49.088Z,101342.72
2022-12-26T21:57:17.563Z,101384.69
2022-12-26T21:59:58.259Z,101357.03
2022-12-26T22:02:47.243Z,101393.00
2022-12-26T22:05:17.877Z,101383.28
2022-12-26T22:07:45.857Z,101389.63
2022-12-26T22:10:34.517Z,101391.16
2022-12-26T22:13:02.485Z,101376.56
2022-12-26T22:15:47.812Z,101390.31
2022-12-26T22:18:15.703Z,101383.84
2022-12-26T22:20:45.954Z,101398.72
2022-12-26T22:23:14.415Z,101396.38
2022-12-26T22:25:42.226Z,101406.88
2022-12-26T22:28:10.012Z,101412.75
2022-12-26T22:30:37.809Z,101409.97
2022-12-26T22:33:05.594Z,101420.88
2022-12-26T22:35:34.044Z,101401.41
2022-12-26T22:38:03.145Z,101389.53
2022-12-26T22:40:30.966Z,101421.81
2022-12-26T22:42:58.756Z,101426.13
2022-12-26T22:45:26.557Z,101417.41
2022-12-26T22:47:54.319Z,101423.25
2022-12-26T22:50:22.190Z,101420.88
2022-12-26T22:52:49.988Z,101422.38
2022-12-26T22:55:19.448Z,101419.69
2022-12-26T22:57:51.130Z,101430.03
2022-12-26T23:00:20.460Z,101424.19
2022-12-26T23:02:48.364Z,101433.66
2022-12-26T23:05:17.009Z,101423.44
2022-12-26T23:07:45.302Z,101442.97
2022-12-26T23:10:20.862Z,101436.03
2022-12-26T23:12:49.059Z,101435.88
2022-12-26T23:15:19.210Z,101433.25
2022-12-26T23:18:18.377Z,101419.88
2022-12-26T23:21:05.048Z,101420.03
2022-12-26T23:23:33.470Z,101442.06
2022-12-26T23:26:02.864Z,101449.16
2022-12-26T23:28:48.052Z,101444.75
2022-12-26T23:31:16.505Z,101456.09
2022-12-26T23:33:44.310Z,101462.09
2022-12-26T23:36:12.051Z,101382.03
2022-12-26T23:38:39.950Z,101464.13
2022-12-26T23:41:09.065Z,101460.84
2022-12-26T23:43:36.913Z,101461.34
2022-12-26T23:46:09.532Z,101430.16
2022-12-26T23:48:37.493Z,101459.59
2022-12-26T23:51:07.433Z,101467.09
2022-12-26T23:53:36.068Z,101461.91
2022-12-26T23:56:03.916Z,101466.66
2022-12-26T23:58:33.037Z,101466.59
